sensor_id;sensor_type;location;lat;lon;timestamp;P1;durP1;ratioP1;P2;durP2;ratioP2
35223;SDS011;21367;51.930;8.112;2022-12-01T00:01:25;125.40;;;33.47;;
35223;SDS011;21367;51.930;8.112;2022-12-01T00:06:32;122.50;;;32.30;;
35223;SDS011;21367;51.930;8.112;2022-12-01T00:11:36;129.38;;;33.35;;
35223;SDS011;21367;51.930;8.112;2022-12-01T00:16:40;101.90;;;30.15;;
35223;SDS011;21367;51.930;8.112;2022-12-01T00:21:47;104.65;;;28.65;;
35223;SDS011;21367;51.930;8.112;2022-12-01T00:26:51;106.85;;;29.98;;
35223;SDS011;21367;51.930;8.112;2022-12-01T00:31:55;106.70;;;28.60;;
35223;SDS011;21367;51.930;8.112;2022-12-01T00:37:02;108.72;;;29.35;;
35223;SDS011;21367;51.930;8.112;2022-12-01T00:42:06;98.82;;;29.48;;
35223;SDS011;21367;51.930;8.112;2022-12-01T00:52:17;97.72;;;27.75;;
35223;SDS011;21367;51.930;8.112;2022-12-01T00:57:22;106.35;;;32.10;;
35223;SDS011;21367;51.930;8.112;2022-12-01T01:02:25;103.97;;;28.45;;
35223;SDS011;21367;51.930;8.112;2022-12-01T01:07:32;100.97;;;29.70;;
35223;SDS011;21367;51.930;8.112;2022-12-01T01:12:36;105.65;;;33.03;;
35223;SDS011;21367;51.930;8.112;2022-12-01T01:17:40;102.22;;;28.15;;
35223;SDS011;21367;51.930;8.112;2022-12-01T01:22:46;107.88;;;30.27;;
35223;SDS011;21367;51.930;8.112;2022-12-01T01:27:50;99.43;;;28.40;;
35223;SDS011;21367;51.930;8.112;2022-12-01T01:32:54;83.97;;;26.15;;
35223;SDS011;21367;51.930;8.112;2022-12-01T01:38:02;85.35;;;24.02;;
35223;SDS011;21367;51.930;8.112;2022-12-01T01:43:08;75.65;;;26.00;;
35223;SDS011;21367;51.930;8.112;2022-12-01T01:48:17;87.75;;;25.65;;
35223;SDS011;21367;51.930;8.112;2022-12-01T01:53:23;85.85;;;27.05;;
35223;SDS011;21367;51.930;8.112;2022-12-01T01:58:27;94.90;;;26.10;;
35223;SDS011;21367;51.930;8.112;2022-12-01T02:03:33;94.47;;;26.38;;
35223;SDS011;21367;51.930;8.112;2022-12-01T02:08:41;78.72;;;25.65;;
35223;SDS011;21367;51.930;8.112;2022-12-01T02:29:57;62.85;;;22.02;;
35223;SDS011;21367;51.930;8.112;2022-12-01T02:35:11;56.47;;;20.35;;
35223;SDS011;21367;51.930;8.112;2022-12-01T02:40:19;53.30;;;19.85;;
35223;SDS011;21367;51.930;8.112;2022-12-01T02:45:33;50.25;;;19.83;;
35223;SDS011;21367;51.930;8.112;2022-12-01T02:50:45;54.95;;;19.63;;
35223;SDS011;21367;51.930;8.112;2022-12-01T02:55:52;57.13;;;19.45;;
35223;SDS011;21367;51.930;8.112;2022-12-01T03:01:04;53.97;;;20.35;;
35223;SDS011;21367;51.930;8.112;2022-12-01T03:06:23;58.83;;;20.15;;
35223;SDS011;21367;51.930;8.112;2022-12-01T03:11:38;60.30;;;22.00;;
35223;SDS011;21367;51.930;8.112;2022-12-01T03:16:49;71.32;;;24.80;;
35223;SDS011;21367;51.930;8.112;2022-12-01T03:22:00;73.68;;;25.23;;
35223;SDS011;21367;51.930;8.112;2022-12-01T03:27:10;72.28;;;23.88;;
35223;SDS011;21367;51.930;8.112;2022-12-01T03:32:17;80.68;;;25.13;;
35223;SDS011;21367;51.930;8.112;2022-12-01T03:37:38;63.72;;;23.83;;
35223;SDS011;21367;51.930;8.112;2022-12-01T03:42:45;84.25;;;24.92;;
35223;SDS011;21367;51.930;8.112;2022-12-01T03:47:53;75.78;;;25.83;;
35223;SDS011;21367;51.930;8.112;2022-12-01T03:53:02;76.80;;;25.50;;
35223;SDS011;21367;51.930;8.112;2022-12-01T03:58:11;99.65;;;27.95;;
35223;SDS011;21367;51.930;8.112;2022-12-01T04:03:18;95.15;;;28.02;;
35223;SDS011;21367;51.930;8.112;2022-12-01T04:08:27;91.40;;;27.05;;
35223;SDS011;21367;51.930;8.112;2022-12-01T04:13:33;81.80;;;25.85;;
35223;SDS011;21367;51.930;8.112;2022-12-01T04:18:36;75.30;;;24.52;;
35223;SDS011;21367;51.930;8.112;2022-12-01T04:23:43;96.75;;;26.80;;
35223;SDS011;21367;51.930;8.112;2022-12-01T04:28:59;74.05;;;25.25;;
35223;SDS011;21367;51.930;8.112;2022-12-01T04:34:04;78.80;;;25.90;;
35223;SDS011;21367;51.930;8.112;2022-12-01T04:39:11;84.60;;;26.60;;
35223;SDS011;21367;51.930;8.112;2022-12-01T04:44:16;84.35;;;26.33;;
35223;SDS011;21367;51.930;8.112;2022-12-01T04:49:21;70.60;;;24.92;;
35223;SDS011;21367;51.930;8.112;2022-12-01T04:54:28;96.68;;;29.42;;
35223;SDS011;21367;51.930;8.112;2022-12-01T04:59:32;100.40;;;29.25;;
35223;SDS011;21367;51.930;8.112;2022-12-01T05:04:35;97.40;;;28.20;;
35223;SDS011;21367;51.930;8.112;2022-12-01T05:09:43;88.22;;;27.90;;
35223;SDS011;21367;51.930;8.112;2022-12-01T05:14:48;96.30;;;29.25;;
35223;SDS011;21367;51.930;8.112;2022-12-01T05:19:52;94.40;;;28.08;;
35223;SDS011;21367;51.930;8.112;2022-12-01T05:25:11;87.78;;;27.60;;
35223;SDS011;21367;51.930;8.112;2022-12-01T05:30:15;82.47;;;28.23;;
35223;SDS011;21367;51.930;8.112;2022-12-01T05:35:19;100.15;;;31.48;;
35223;SDS011;21367;51.930;8.112;2022-12-01T05:40:25;103.13;;;30.63;;
35223;SDS011;21367;51.930;8.112;2022-12-01T05:45:30;105.18;;;30.52;;
35223;SDS011;21367;51.930;8.112;2022-12-01T05:50:36;116.93;;;32.70;;
35223;SDS011;21367;51.930;8.112;2022-12-01T05:55:44;124.82;;;33.78;;
35223;SDS011;21367;51.930;8.112;2022-12-01T06:00:50;104.07;;;32.42;;
35223;SDS011;21367;51.930;8.112;2022-12-01T06:05:54;114.57;;;32.65;;
35223;SDS011;21367;51.930;8.112;2022-12-01T06:11:01;129.18;;;35.63;;
35223;SDS011;21367;51.930;8.112;2022-12-01T06:16:05;122.85;;;34.97;;
35223;SDS011;21367;51.930;8.112;2022-12-01T06:21:09;114.78;;;33.83;;
35223;SDS011;21367;51.930;8.112;2022-12-01T06:26:16;111.13;;;34.13;;
35223;SDS011;21367;51.930;8.112;2022-12-01T06:31:20;107.50;;;32.67;;
35223;SDS011;21367;51.930;8.112;2022-12-01T06:36:24;107.72;;;33.38;;
35223;SDS011;21367;51.930;8.112;2022-12-01T06:41:30;125.75;;;35.80;;
35223;SDS011;21367;51.930;8.112;2022-12-01T06:46:34;108.88;;;37.47;;
35223;SDS011;21367;51.930;8.112;2022-12-01T06:51:38;127.90;;;40.72;;
35223;SDS011;21367;51.930;8.112;2022-12-01T06:56:45;128.88;;;42.13;;
35223;SDS011;21367;51.930;8.112;2022-12-01T07:01:49;147.38;;;44.42;;
35223;SDS011;21367;51.930;8.112;2022-12-01T07:06:53;153.07;;;45.20;;
35223;SDS011;21367;51.930;8.112;2022-12-01T07:11:59;150.75;;;45.58;;
35223;SDS011;21367;51.930;8.112;2022-12-01T07:17:03;162.13;;;48.42;;
35223;SDS011;21367;51.930;8.112;2022-12-01T07:22:07;173.77;;;52.70;;
35223;SDS011;21367;51.930;8.112;2022-12-01T07:27:14;170.95;;;49.75;;
35223;SDS011;21367;51.930;8.112;2022-12-01T07:32:18;164.70;;;47.92;;
35223;SDS011;21367;51.930;8.112;2022-12-01T07:37:22;168.10;;;48.40;;
35223;SDS011;21367;51.930;8.112;2022-12-01T07:42:29;154.57;;;48.72;;
35223;SDS011;21367;51.930;8.112;2022-12-01T07:52:36;165.60;;;48.95;;
35223;SDS011;21367;51.930;8.112;2022-12-01T07:57:43;181.52;;;54.80;;
35223;SDS011;21367;51.930;8.112;2022-12-01T08:02:53;180.93;;;54.78;;
35223;SDS011;21367;51.930;8.112;2022-12-01T08:07:56;168.27;;;53.70;;
35223;SDS011;21367;51.930;8.112;2022-12-01T08:13:03;177.27;;;54.92;;
35223;SDS011;21367;51.930;8.112;2022-12-01T08:18:06;164.80;;;51.60;;
35223;SDS011;21367;51.930;8.112;2022-12-01T08:23:10;161.30;;;52.50;;
35223;SDS011;21367;51.930;8.112;2022-12-01T08:28:17;158.05;;;52.03;;
35223;SDS011;21367;51.930;8.112;2022-12-01T08:33:21;160.18;;;50.67;;
35223;SDS011;21367;51.930;8.112;2022-12-01T08:38:25;166.85;;;52.80;;
35223;SDS011;21367;51.930;8.112;2022-12-01T08:43:32;168.50;;;52.35;;
35223;SDS011;21367;51.930;8.112;2022-12-01T08:48:40;162.57;;;54.38;;
35223;SDS011;21367;51.930;8.112;2022-12-01T08:53:46;166.65;;;53.92;;
35223;SDS011;21367;51.930;8.112;2022-12-01T09:03:59;159.35;;;53.78;;
35223;SDS011;21367;51.930;8.112;2022-12-01T09:09:12;161.70;;;54.58;;
35223;SDS011;21367;51.930;8.112;2022-12-01T09:14:23;162.15;;;53.78;;
35223;SDS011;21367;51.930;8.112;2022-12-01T09:19:27;157.38;;;51.22;;
35223;SDS011;21367;51.930;8.112;2022-12-01T09:24:31;145.45;;;51.75;;
35223;SDS011;21367;51.930;8.112;2022-12-01T09:29:39;154.32;;;50.13;;
35223;SDS011;21367;51.930;8.112;2022-12-01T09:34:43;151.52;;;51.92;;
35223;SDS011;21367;51.930;8.112;2022-12-01T09:39:47;144.80;;;49.72;;
35223;SDS011;21367;51.930;8.112;2022-12-01T09:44:54;142.93;;;51.08;;
35223;SDS011;21367;51.930;8.112;2022-12-01T09:50:03;136.13;;;49.38;;
35223;SDS011;21367;51.930;8.112;2022-12-01T09:55:14;145.48;;;48.67;;
35223;SDS011;21367;51.930;8.112;2022-12-01T10:05:35;136.05;;;47.53;;
35223;SDS011;21367;51.930;8.112;2022-12-01T10:10:45;143.20;;;50.05;;
35223;SDS011;21367;51.930;8.112;2022-12-01T10:15:57;148.98;;;48.20;;
35223;SDS011;21367;51.930;8.112;2022-12-01T10:21:11;127.82;;;48.28;;
35223;SDS011;21367;51.930;8.112;2022-12-01T10:26:24;132.95;;;47.58;;
35223;SDS011;21367;51.930;8.112;2022-12-01T10:31:38;138.05;;;50.00;;
35223;SDS011;21367;51.930;8.112;2022-12-01T10:36:50;140.25;;;48.90;;
35223;SDS011;21367;51.930;8.112;2022-12-01T10:42:01;144.35;;;46.75;;
35223;SDS011;21367;51.930;8.112;2022-12-01T10:47:16;139.25;;;47.03;;
35223;SDS011;21367;51.930;8.112;2022-12-01T10:52:30;130.35;;;45.88;;
35223;SDS011;21367;51.930;8.112;2022-12-01T10:57:35;137.15;;;48.63;;
35223;SDS011;21367;51.930;8.112;2022-12-01T11:02:42;134.90;;;46.22;;
35223;SDS011;21367;51.930;8.112;2022-12-01T11:07:47;122.93;;;44.03;;
35223;SDS011;21367;51.930;8.112;2022-12-01T11:18:02;117.60;;;40.80;;
35223;SDS011;21367;51.930;8.112;2022-12-01T11:23:19;121.63;;;40.22;;
35223;SDS011;21367;51.930;8.112;2022-12-01T11:28:27;123.80;;;43.47;;
35223;SDS011;21367;51.930;8.112;2022-12-01T11:33:41;111.03;;;42.53;;
35223;SDS011;21367;51.930;8.112;2022-12-01T11:38:49;106.95;;;41.47;;
35223;SDS011;21367;51.930;8.112;2022-12-01T11:43:59;114.53;;;41.08;;
35223;SDS011;21367;51.930;8.112;2022-12-01T11:49:13;113.38;;;40.72;;
35223;SDS011;21367;51.930;8.112;2022-12-01T11:54:20;112.38;;;41.22;;
35223;SDS011;21367;51.930;8.112;2022-12-01T11:59:26;121.37;;;40.50;;
35223;SDS011;21367;51.930;8.112;2022-12-01T12:04:42;111.28;;;39.03;;
35223;SDS011;21367;51.930;8.112;2022-12-01T12:10:02;103.10;;;37.75;;
35223;SDS011;21367;51.930;8.112;2022-12-01T12:15:32;105.47;;;36.83;;
35223;SDS011;21367;51.930;8.112;2022-12-01T12:20:54;102.03;;;38.53;;
35223;SDS011;21367;51.930;8.112;2022-12-01T12:26:08;103.55;;;37.78;;
35223;SDS011;21367;51.930;8.112;2022-12-01T12:31:22;117.43;;;43.05;;
35223;SDS011;21367;51.930;8.112;2022-12-01T12:36:37;105.80;;;38.08;;
35223;SDS011;21367;51.930;8.112;2022-12-01T12:41:47;105.75;;;36.42;;
35223;SDS011;21367;51.930;8.112;2022-12-01T12:46:55;96.57;;;33.38;;
35223;SDS011;21367;51.930;8.112;2022-12-01T12:52:11;94.13;;;33.60;;
35223;SDS011;21367;51.930;8.112;2022-12-01T12:57:19;104.78;;;36.75;;
35223;SDS011;21367;51.930;8.112;2022-12-01T13:02:30;97.32;;;33.53;;
35223;SDS011;21367;51.930;8.112;2022-12-01T13:07:42;95.43;;;33.85;;
35223;SDS011;21367;51.930;8.112;2022-12-01T13:12:54;97.13;;;34.25;;
35223;SDS011;21367;51.930;8.112;2022-12-01T13:18:02;99.13;;;33.67;;
35223;SDS011;21367;51.930;8.112;2022-12-01T13:23:26;90.30;;;32.10;;
35223;SDS011;21367;51.930;8.112;2022-12-01T13:28:33;94.45;;;34.70;;
35223;SDS011;21367;51.930;8.112;2022-12-01T13:33:43;100.25;;;34.28;;
35223;SDS011;21367;51.930;8.112;2022-12-01T13:38:59;98.80;;;33.78;;
35223;SDS011;21367;51.930;8.112;2022-12-01T13:44:07;95.22;;;35.17;;
35223;SDS011;21367;51.930;8.112;2022-12-01T13:54:42;90.80;;;32.15;;
35223;SDS011;21367;51.930;8.112;2022-12-01T14:00:05;94.70;;;31.20;;
35223;SDS011;21367;51.930;8.112;2022-12-01T14:10:54;92.63;;;31.25;;
35223;SDS011;21367;51.930;8.112;2022-12-01T14:16:00;98.82;;;34.53;;
35223;SDS011;21367;51.930;8.112;2022-12-01T14:21:08;97.55;;;32.85;;
35223;SDS011;21367;51.930;8.112;2022-12-01T14:26:18;95.20;;;34.33;;
35223;SDS011;21367;51.930;8.112;2022-12-01T14:31:24;106.10;;;35.78;;
35223;SDS011;21367;51.930;8.112;2022-12-01T14:37:06;99.70;;;34.83;;
35223;SDS011;21367;51.930;8.112;2022-12-01T14:42:19;104.10;;;34.75;;
35223;SDS011;21367;51.930;8.112;2022-12-01T14:47:51;105.68;;;35.55;;
35223;SDS011;21367;51.930;8.112;2022-12-01T14:53:03;106.63;;;33.92;;
35223;SDS011;21367;51.930;8.112;2022-12-01T14:58:16;100.18;;;34.45;;
35223;SDS011;21367;51.930;8.112;2022-12-01T15:03:22;99.82;;;33.03;;
35223;SDS011;21367;51.930;8.112;2022-12-01T15:08:27;98.05;;;33.63;;
35223;SDS011;21367;51.930;8.112;2022-12-01T15:13:39;100.93;;;31.75;;
35223;SDS011;21367;51.930;8.112;2022-12-01T15:18:50;94.93;;;33.47;;
35223;SDS011;21367;51.930;8.112;2022-12-01T15:23:55;87.15;;;32.60;;
35223;SDS011;21367;51.930;8.112;2022-12-01T15:34:17;92.35;;;32.35;;
35223;SDS011;21367;51.930;8.112;2022-12-01T15:39:25;94.13;;;33.33;;
35223;SDS011;21367;51.930;8.112;2022-12-01T15:44:35;94.10;;;34.28;;
35223;SDS011;21367;51.930;8.112;2022-12-01T15:54:52;98.70;;;33.50;;
35223;SDS011;21367;51.930;8.112;2022-12-01T15:59:58;91.60;;;33.30;;
35223;SDS011;21367;51.930;8.112;2022-12-01T16:05:14;109.30;;;35.05;;
35223;SDS011;21367;51.930;8.112;2022-12-01T16:10:24;108.72;;;35.88;;
35223;SDS011;21367;51.930;8.112;2022-12-01T16:15:40;104.05;;;32.83;;
35223;SDS011;21367;51.930;8.112;2022-12-01T16:20:45;100.88;;;32.35;;
35223;SDS011;21367;51.930;8.112;2022-12-01T16:25:49;102.65;;;35.33;;
35223;SDS011;21367;51.930;8.112;2022-12-01T16:30:56;98.53;;;33.67;;
35223;SDS011;21367;51.930;8.112;2022-12-01T16:36:02;103.32;;;35.30;;
35223;SDS011;21367;51.930;8.112;2022-12-01T16:41:13;105.53;;;35.80;;
35223;SDS011;21367;51.930;8.112;2022-12-01T16:46:21;128.70;;;38.15;;
35223;SDS011;21367;51.930;8.112;2022-12-01T16:51:25;119.00;;;36.80;;
35223;SDS011;21367;51.930;8.112;2022-12-01T16:56:29;111.20;;;37.85;;
35223;SDS011;21367;51.930;8.112;2022-12-01T17:01:36;114.88;;;37.40;;
35223;SDS011;21367;51.930;8.112;2022-12-01T17:06:40;117.80;;;37.22;;
35223;SDS011;21367;51.930;8.112;2022-12-01T17:11:45;123.28;;;36.50;;
35223;SDS011;21367;51.930;8.112;2022-12-01T17:21:57;113.82;;;36.42;;
35223;SDS011;21367;51.930;8.112;2022-12-01T17:27:04;114.90;;;38.00;;
35223;SDS011;21367;51.930;8.112;2022-12-01T17:32:11;105.03;;;37.28;;
35223;SDS011;21367;51.930;8.112;2022-12-01T17:37:16;119.43;;;38.13;;
35223;SDS011;21367;51.930;8.112;2022-12-01T17:42:20;127.18;;;40.03;;
35223;SDS011;21367;51.930;8.112;2022-12-01T17:47:27;123.28;;;39.33;;
35223;SDS011;21367;51.930;8.112;2022-12-01T17:52:32;117.65;;;40.95;;
35223;SDS011;21367;51.930;8.112;2022-12-01T17:57:36;122.25;;;39.42;;
35223;SDS011;21367;51.930;8.112;2022-12-01T18:02:43;121.65;;;38.33;;
35223;SDS011;21367;51.930;8.112;2022-12-01T18:07:50;124.68;;;40.53;;
35223;SDS011;21367;51.930;8.112;2022-12-01T18:12:54;133.95;;;41.10;;
35223;SDS011;21367;51.930;8.112;2022-12-01T18:18:00;141.32;;;40.88;;
35223;SDS011;21367;51.930;8.112;2022-12-01T18:23:05;135.68;;;41.53;;
35223;SDS011;21367;51.930;8.112;2022-12-01T18:28:08;143.55;;;44.55;;
35223;SDS011;21367;51.930;8.112;2022-12-01T18:33:15;119.53;;;40.55;;
35223;SDS011;21367;51.930;8.112;2022-12-01T18:38:20;142.90;;;45.70;;
35223;SDS011;21367;51.930;8.112;2022-12-01T18:43:25;138.38;;;44.35;;
35223;SDS011;21367;51.930;8.112;2022-12-01T18:48:31;152.73;;;44.72;;
35223;SDS011;21367;51.930;8.112;2022-12-01T18:53:36;150.13;;;45.75;;
35223;SDS011;21367;51.930;8.112;2022-12-01T18:58:40;143.32;;;41.17;;
35223;SDS011;21367;51.930;8.112;2022-12-01T19:03:47;152.35;;;44.53;;
35223;SDS011;21367;51.930;8.112;2022-12-01T19:08:52;156.95;;;45.10;;
35223;SDS011;21367;51.930;8.112;2022-12-01T19:13:56;172.88;;;42.53;;
35223;SDS011;21367;51.930;8.112;2022-12-01T19:19:04;162.90;;;42.63;;
35223;SDS011;21367;51.930;8.112;2022-12-01T19:24:09;155.50;;;41.88;;
35223;SDS011;21367;51.930;8.112;2022-12-01T19:29:13;156.90;;;44.97;;
35223;SDS011;21367;51.930;8.112;2022-12-01T19:34:20;146.57;;;43.15;;
35223;SDS011;21367;51.930;8.112;2022-12-01T19:39:27;150.43;;;42.83;;
35223;SDS011;21367;51.930;8.112;2022-12-01T19:44:31;162.15;;;44.35;;
35223;SDS011;21367;51.930;8.112;2022-12-01T19:49:38;151.98;;;42.15;;
35223;SDS011;21367;51.930;8.112;2022-12-01T19:54:42;168.35;;;46.00;;
35223;SDS011;21367;51.930;8.112;2022-12-01T19:59:47;180.93;;;43.28;;
35223;SDS011;21367;51.930;8.112;2022-12-01T20:04:56;200.38;;;45.78;;
35223;SDS011;21367;51.930;8.112;2022-12-01T20:10:00;192.13;;;43.75;;
35223;SDS011;21367;51.930;8.112;2022-12-01T20:15:05;171.00;;;41.92;;
35223;SDS011;21367;51.930;8.112;2022-12-01T20:20:13;169.20;;;41.22;;
35223;SDS011;21367;51.930;8.112;2022-12-01T20:25:17;165.55;;;41.38;;
35223;SDS011;21367;51.930;8.112;2022-12-01T20:30:21;170.00;;;42.67;;
35223;SDS011;21367;51.930;8.112;2022-12-01T20:35:28;169.85;;;43.05;;
35223;SDS011;21367;51.930;8.112;2022-12-01T20:40:33;169.60;;;40.13;;
35223;SDS011;21367;51.930;8.112;2022-12-01T20:45:37;154.45;;;37.58;;
35223;SDS011;21367;51.930;8.112;2022-12-01T20:50:43;157.98;;;38.05;;
35223;SDS011;21367;51.930;8.112;2022-12-01T20:55:48;153.10;;;37.92;;
35223;SDS011;21367;51.930;8.112;2022-12-01T21:00:52;148.25;;;37.65;;
35223;SDS011;21367;51.930;8.112;2022-12-01T21:05:59;144.55;;;35.60;;
35223;SDS011;21367;51.930;8.112;2022-12-01T21:11:05;139.38;;;35.67;;
35223;SDS011;21367;51.930;8.112;2022-12-01T21:16:11;140.65;;;35.25;;
35223;SDS011;21367;51.930;8.112;2022-12-01T21:21:29;144.35;;;37.30;;
35223;SDS011;21367;51.930;8.112;2022-12-01T21:26:34;141.25;;;37.22;;
35223;SDS011;21367;51.930;8.112;2022-12-01T21:31:38;147.45;;;37.92;;
35223;SDS011;21367;51.930;8.112;2022-12-01T21:36:46;132.55;;;35.72;;
35223;SDS011;21367;51.930;8.112;2022-12-01T21:41:51;152.65;;;37.58;;
35223;SDS011;21367;51.930;8.112;2022-12-01T21:46:58;150.02;;;38.85;;
35223;SDS011;21367;51.930;8.112;2022-12-01T21:52:19;143.70;;;37.40;;
35223;SDS011;21367;51.930;8.112;2022-12-01T21:57:28;144.25;;;37.72;;
35223;SDS011;21367;51.930;8.112;2022-12-01T22:02:43;137.90;;;35.75;;
35223;SDS011;21367;51.930;8.112;2022-12-01T22:08:06;138.63;;;36.50;;
35223;SDS011;21367;51.930;8.112;2022-12-01T22:13:17;142.68;;;36.92;;
35223;SDS011;21367;51.930;8.112;2022-12-01T22:18:26;143.30;;;37.67;;
35223;SDS011;21367;51.930;8.112;2022-12-01T22:23:40;140.15;;;36.95;;
35223;SDS011;21367;51.930;8.112;2022-12-01T22:28:44;148.73;;;38.03;;
35223;SDS011;21367;51.930;8.112;2022-12-01T22:33:48;138.07;;;36.47;;
35223;SDS011;21367;51.930;8.112;2022-12-01T22:39:02;146.23;;;37.22;;
35223;SDS011;21367;51.930;8.112;2022-12-01T22:44:25;147.40;;;36.40;;
35223;SDS011;21367;51.930;8.112;2022-12-01T22:49:33;162.77;;;38.53;;
35223;SDS011;21367;51.930;8.112;2022-12-01T22:54:40;156.63;;;39.95;;
35223;SDS011;21367;51.930;8.112;2022-12-01T22:59:46;159.88;;;36.72;;
35223;SDS011;21367;51.930;8.112;2022-12-01T23:04:51;171.35;;;37.90;;
35223;SDS011;21367;51.930;8.112;2022-12-01T23:10:08;157.90;;;37.28;;
35223;SDS011;21367;51.930;8.112;2022-12-01T23:15:22;174.10;;;41.63;;
35223;SDS011;21367;51.930;8.112;2022-12-01T23:20:31;177.25;;;39.22;;
35223;SDS011;21367;51.930;8.112;2022-12-01T23:25:39;168.68;;;37.95;;
35223;SDS011;21367;51.930;8.112;2022-12-01T23:30:45;172.98;;;39.85;;
35223;SDS011;21367;51.930;8.112;2022-12-01T23:35:52;171.77;;;38.90;;
35223;SDS011;21367;51.930;8.112;2022-12-01T23:41:03;145.75;;;36.85;;
35223;SDS011;21367;51.930;8.112;2022-12-01T23:46:10;189.95;;;39.03;;
35223;SDS011;21367;51.930;8.112;2022-12-01T23:51:17;189.85;;;39.72;;
35223;SDS011;21367;51.930;8.112;2022-12-01T23:56:29;186.13;;;41.38;;
